Time;durP1;ratioP1;P1;durP2;ratioP2;P2;SDS_P1;SDS_P2;PMS_P1;PMS_P2;Temp;Humidity;BMP_temperature;BMP_pressure;BME280_temperature;BME280_humidity;BME280_pressure;Samples;Min_cycle;Max_cycle;Signal;HPM_P1;HPM_P2
2022/11/06 00:08:06;;;;;;;10.15;7.95;;;;;;;;;;4931108;29;19913;-58
2022/11/06 00:19:36;;;;;;;11.90;8.35;;;;;;;;;;5088642;28;20466;-60
2022/11/06 00:22:51;;;;;;;9.43;8.23;;;;;;;;;;5069698;28;20032;-60
2022/11/06 00:25:39;;;;;;;9.55;8.32;;;;;;;;;;5044925;28;20383;-60
2022/11/06 00:28:38;;;;;;;13.13;7.53;;;;;;;;;;5088804;28;20048;-60
2022/11/06 00:31:26;;;;;;;9.77;8.43;;;;;;;;;;5088771;28;20043;-60
2022/11/06 00:33:56;;;;;;;11.45;7.95;;;;;;;;;;5089597;28;20024;-58
2022/11/06 00:36:29;;;;;;;10.07;8.52;;;;;;;;;;5088662;28;20478;-57
2022/11/06 00:39:08;;;;;;;9.60;8.07;;;;;;;;;;5053747;28;20024;-60
2022/11/06 00:41:44;;;;;;;8.38;7.25;;;;;;;;;;5085641;28;20090;-60
2022/11/06 00:47:43;;;;;;;8.60;7.30;;;;;;;;;;5033253;28;20036;-60
2022/11/06 00:50:45;;;;;;;9.73;8.32;;;;;;;;;;5069414;28;20059;-60
2022/11/06 00:53:30;;;;;;;9.25;7.30;;;;;;;;;;5089460;28;20053;-60
2022/11/06 00:59:21;;;;;;;10.93;7.60;;;;;;;;;;5087181;28;20039;-60
2022/11/06 01:04:46;;;;;;;13.98;8.25;;;;;;;;;;4988118;28;20035;-60
2022/11/06 01:07:44;;;;;;;9.13;7.63;;;;;;;;;;5082683;28;20033;-60
2022/11/06 01:10:31;;;;;;;9.30;7.15;;;;;;;;;;5082092;28;20044;-60
2022/11/06 01:13:25;;;;;;;7.65;6.65;;;;;;;;;;5090951;28;20028;-60
2022/11/06 01:15:58;;;;;;;8.10;6.38;;;;;;;;;;5074118;28;20039;-60
2022/11/06 01:18:24;;;;;;;7.75;6.95;;;;;;;;;;5092056;28;20124;-60
2022/11/06 01:21:11;;;;;;;8.73;7.75;;;;;;;;;;5074120;28;20386;-60
2022/11/06 01:24:08;;;;;;;;;;;;;;;;;;;;;
2022/11/06 01:26:58;;;;;;;9.00;7.50;;;;;;;;;;5083781;28;20064;-60
2022/11/06 01:29:57;;;;;;;7.63;6.07;;;;;;;;;;5091696;28;20055;-58
2022/11/06 01:32:42;;;;;;;7.28;5.93;;;;;;;;;;5085237;28;20043;-57
2022/11/06 01:35:29;;;;;;;9.00;6.88;;;;;;;;;;5091844;28;20051;-57
2022/11/06 01:41:06;;;;;;;;;;;;;;;;;;;;;
2022/11/06 01:49:41;;;;;;;8.65;6.68;;;;;;;;;;5091227;28;20079;-57
2022/11/06 01:52:45;;;;;;;7.45;6.60;;;;;;;;;;5096342;28;20056;-58
2022/11/06 01:55:34;;;;;;;10.57;7.25;;;;;;;;;;5090866;28;20032;-59
2022/11/06 01:58:16;;;;;;;7.28;6.45;;;;;;;;;;5091494;28;20040;-58
2022/11/06 02:00:58;;;;;;;8.40;6.43;;;;;;;;;;5072877;28;20048;-58
2022/11/06 02:03:49;;;;;;;7.38;5.95;;;;;;;;;;5039663;28;20039;-58
2022/11/06 02:09:37;;;;;;;7.88;6.25;;;;;;;;;;5082118;28;20374;-58
2022/11/06 02:12:33;;;;;;;8.45;7.15;;;;;;;;;;5073116;28;20028;-58
2022/11/06 02:15:31;;;;;;;7.88;6.53;;;;;;;;;;5080116;28;20059;-59
2022/11/06 02:18:37;;;;;;;8.80;6.97;;;;;;;;;;5054300;28;20071;-59
2022/11/06 02:21:24;;;;;;;8.65;6.35;;;;;;;;;;5090375;28;20561;-58
2022/11/06 02:24:12;;;;;;;13.07;6.85;;;;;;;;;;5090089;28;20099;-58
2022/11/06 02:26:57;;;;;;;11.35;8.07;;;;;;;;;;5090545;28;20032;-58
2022/11/06 02:32:59;;;;;;;7.72;6.68;;;;;;;;;;5089582;28;20124;-58
2022/11/06 02:35:46;;;;;;;10.68;7.70;;;;;;;;;;5069922;28;20509;-58
2022/11/06 02:38:26;;;;;;;11.35;7.50;;;;;;;;;;5090212;28;20048;-59
2022/11/06 02:41:03;;;;;;;11.05;9.07;;;;;;;;;;5090210;28;20026;-58
2022/11/06 02:44:03;;;;;;;9.10;7.72;;;;;;;;;;5090498;28;20066;-58
2022/11/06 02:50:01;;;;;;;8.65;6.93;;;;;;;;;;4988971;28;20085;-58
2022/11/06 02:52:54;;;;;;;;;;;;;;;;;;;;;
2022/11/06 02:55:43;;;;;;;13.38;7.00;;;;;;;;;;5110749;28;20055;-58
2022/11/06 02:58:32;;;;;;;7.80;6.40;;;;;;;;;;5110880;28;20023;-58
2022/11/06 03:11:47;;;;;;;9.73;7.28;;;;;;;;;;4976580;28;20043;-58
2022/11/06 03:14:49;;;;;;;7.80;7.00;;;;;;;;;;5006904;28;20092;-58
2022/11/06 03:17:43;;;;;;;8.23;7.10;;;;;;;;;;5053830;28;20369;-58
2022/11/06 03:23:47;;;;;;;8.27;7.25;;;;;;;;;;5068121;28;20086;-59
2022/11/06 03:27:01;;;;;;;12.25;8.18;;;;;;;;;;5091202;28;20029;-60
2022/11/06 03:33:00;;;;;;;7.70;6.85;;;;;;;;;;4985980;28;20073;-60
2022/11/06 03:35:33;;;;;;;8.70;6.57;;;;;;;;;;4992263;28;20057;-60
2022/11/06 03:38:24;;;;;;;8.70;7.07;;;;;;;;;;5070273;28;20032;-60
2022/11/06 03:41:15;;;;;;;8.13;6.32;;;;;;;;;;5008008;28;20084;-60
2022/11/06 03:43:58;;;;;;;9.85;7.57;;;;;;;;;;4992034;28;20034;-60
2022/11/06 03:49:31;;;;;;;8.80;7.25;;;;;;;;;;5071623;28;20058;-60
2022/11/06 03:55:47;;;;;;;;;;;;;;;;;;;;;
2022/11/06 04:01:33;;;;;;;5.63;4.97;;;;;;;;;;5081110;28;20040;-60
2022/11/06 04:04:09;;;;;;;6.47;5.80;;;;;;;;;;5089217;28;20103;-60
2022/11/06 04:06:56;;;;;;;8.25;5.55;;;;;;;;;;5042176;28;20063;-60
2022/11/06 04:16:08;;;;;;;7.10;5.05;;;;;;;;;;5027264;28;20041;-60
2022/11/06 04:19:03;;;;;;;6.10;4.05;;;;;;;;;;5017207;28;20034;-60
2022/11/06 04:21:49;;;;;;;7.57;5.47;;;;;;;;;;5026907;28;20046;-59
2022/11/06 04:31:28;;;;;;;4.93;4.38;;;;;;;;;;4896795;29;20040;-60
2022/11/06 04:34:07;;;;;;;10.93;4.35;;;;;;;;;;4897982;29;20467;-60
2022/11/06 04:39:59;;;;;;;4.57;3.20;;;;;;;;;;4911120;29;20490;-59
2022/11/06 04:42:51;;;;;;;7.23;5.63;;;;;;;;;;4915714;29;20048;-59
2022/11/06 04:48:34;;;;;;;5.30;4.10;;;;;;;;;;4976142;28;20032;-59
2022/11/06 04:51:06;;;;;;;;;;;;;;;;;;5061090;28;20128;-60
2022/11/06 04:56:54;;;;;;;3.90;3.20;;;;;;;;;;5098042;28;20031;-59
2022/11/06 04:59:44;;;;;;;4.93;3.80;;;;;;;;;;5095690;28;20056;-59
2022/11/06 05:02:38;;;;;;;4.20;3.35;;;;;;;;;;5098068;28;20042;-59
2022/11/06 05:08:42;;;;;;;4.18;3.40;;;;;;;;;;5089469;28;20059;-59
2022/11/06 05:11:49;;;;;;;;;;;;;;;;;;;;;
2022/11/06 05:15:01;;;;;;;4.13;3.37;;;;;;;;;;5093384;28;20031;-59
2022/11/06 05:17:29;;;;;;;3.77;2.83;;;;;;;;;;5097388;28;20354;-59
2022/11/06 05:23:37;;;;;;;5.10;3.57;;;;;;;;;;5086546;28;20043;-59
2022/11/06 05:32:02;;;;;;;4.07;3.40;;;;;;;;;;5035444;28;20475;-59
2022/11/06 05:34:53;;;;;;;4.00;3.60;;;;;;;;;;5024581;28;20034;-59
2022/11/06 05:37:32;;;;;;;5.53;4.90;;;;;;;;;;5019172;28;20525;-60
2022/11/06 05:40:12;;;;;;;6.87;6.13;;;;;;;;;;5006114;28;20032;-59
2022/11/06 05:42:54;;;;;;;5.50;4.28;;;;;;;;;;5035313;28;20486;-60
2022/11/06 05:48:44;;;;;;;6.70;6.03;;;;;;;;;;5037109;28;20036;-59
2022/11/06 05:51:38;;;;;;;;;;;;;;;;;;;;;
2022/11/06 05:54:26;;;;;;;;;;;;;;;;;;;;;
2022/11/06 05:57:31;;;;;;;5.80;5.13;;;;;;;;;;5031768;28;20104;-60
2022/11/06 06:00:00;;;;;;;5.67;4.87;;;;;;;;;;4997313;28;20333;-57
2022/11/06 06:02:46;;;;;;;;;;;;;;;;;;;;;
2022/11/06 06:05:29;;;;;;;6.63;5.10;;;;;;;;;;5096817;28;20027;-57
2022/11/06 06:08:25;;;;;;;7.30;4.77;;;;;;;;;;5068482;28;20035;-56
2022/11/06 06:17:57;;;;;;;5.35;4.72;;;;;;;;;;4994232;28;20027;-59
2022/11/06 06:26:44;;;;;;;6.00;5.07;;;;;;;;;;4991848;28;20152;-59
2022/11/06 06:29:30;;;;;;;7.30;5.23;;;;;;;;;;4994295;28;20129;-60
2022/11/06 06:35:43;;;;;;;5.32;4.68;;;;;;;;;;5053103;28;20036;-59
2022/11/06 06:38:15;;;;;;;11.27;5.87;;;;;;;;;;5096010;28;20024;-60
2022/11/06 06:41:02;;;;;;;7.75;6.70;;;;;;;;;;5096446;28;20499;-59
2022/11/06 06:46:39;;;;;;;6.73;5.67;;;;;;;;;;4993812;28;20069;-59
2022/11/06 06:52:05;;;;;;;7.82;6.47;;;;;;;;;;5095667;28;20047;-59
2022/11/06 06:57:58;;;;;;;5.82;4.75;;;;;;;;;;5081254;28;20024;-57
2022/11/06 07:00:41;;;;;;;6.70;5.63;;;;;;;;;;4993063;28;20041;-60
2022/11/06 07:03:48;;;;;;;8.02;5.25;;;;;;;;;;5076275;28;20443;-59
2022/11/06 07:06:24;;;;;;;7.60;6.60;;;;;;;;;;5093027;28;20366;-57
2022/11/06 07:09:12;;;;;;;7.32;6.18;;;;;;;;;;5074542;28;20078;-58
2022/11/06 07:18:33;;;;;;;;;;;;;;;;;;;;;
2022/11/06 07:21:13;;;;;;;7.05;6.28;;;;;;;;;;4992344;28;20048;-57
2022/11/06 07:24:03;;;;;;;7.60;6.17;;;;;;;;;;4987876;28;20041;-57
2022/11/06 07:26:45;;;;;;;6.37;5.70;;;;;;;;;;4993492;28;20042;-57
2022/11/06 07:29:59;;;;;;;;;;;;;;;;;;;;;
2022/11/06 07:32:37;;;;;;;8.90;6.45;;;;;;;;;;5089876;28;20048;-58
2022/11/06 07:35:09;;;;;;;8.80;5.50;;;;;;;;;;5090026;28;20438;-58
2022/11/06 07:40:51;;;;;;;8.48;3.20;;;;;;;;;;5033268;28;20037;-58
2022/11/06 07:46:32;;;;;;;4.95;4.45;;;;;;;;;;5033146;28;20095;-58
2022/11/06 07:49:23;;;;;;;15.32;4.35;;;;;;;;;;5033637;28;20459;-58
2022/11/06 07:52:11;;;;;;;5.93;3.87;;;;;;;;;;5068021;28;20051;-58
2022/11/06 07:55:05;;;;;;;4.93;3.37;;;;;;;;;;5078438;28;20052;-58
2022/11/06 08:01:03;;;;;;;7.43;3.30;;;;;;;;;;5028142;28;20508;-58
2022/11/06 08:03:50;;;;;;;29.13;3.97;;;;;;;;;;5063298;28;20811;-58
2022/11/06 08:06:34;;;;;;;16.53;4.03;;;;;;;;;;5074096;28;20063;-57
2022/11/06 08:13:05;;;;;;;6.10;3.97;;;;;;;;;;5052205;28;20169;-58
2022/11/06 08:15:49;;;;;;;7.33;5.10;;;;;;;;;;5056121;28;20082;-58
2022/11/06 08:18:31;;;;;;;6.50;4.47;;;;;;;;;;5074323;28;20043;-58
2022/11/06 08:24:13;;;;;;;5.73;4.47;;;;;;;;;;5078301;28;20051;-58
2022/11/06 08:27:11;;;;;;;6.33;3.50;;;;;;;;;;5077862;28;20024;-57
2022/11/06 08:29:56;;;;;;;9.43;5.17;;;;;;;;;;5075341;28;20470;-58
2022/11/06 08:32:39;;;;;;;7.30;4.43;;;;;;;;;;5077070;28;20478;-58
2022/11/06 08:35:24;;;;;;;5.40;4.73;;;;;;;;;;5078840;28;20347;-58
2022/11/06 08:38:00;;;;;;;11.33;5.40;;;;;;;;;;5078210;28;20358;-58
2022/11/06 08:40:49;;;;;;;13.70;4.43;;;;;;;;;;5058921;28;20063;-58
2022/11/06 08:43:31;;;;;;;6.75;5.07;;;;;;;;;;5070705;28;20036;-60
2022/11/06 08:55:49;;;;;;;;;;;;;;;;;;;;;
2022/11/06 08:58:25;;;;;;;7.40;5.80;;;;;;;;;;5077600;28;20374;-59
2022/11/06 09:01:03;;;;;;;8.70;6.97;;;;;;;;;;5078612;28;20062;-60
2022/11/06 09:04:11;;;;;;;;;;;;;;;;;;;;;
2022/11/06 09:06:43;;;;;;;6.97;6.30;;;;;;;;;;5019888;28;20032;-60
2022/11/06 09:12:53;;;;;;;7.10;6.38;;;;;;;;;;5073730;28;20048;-60
2022/11/06 09:15:37;;;;;;;7.38;6.57;;;;;;;;;;5077412;28;20035;-59
2022/11/06 09:21:13;;;;;;;10.57;7.50;;;;;;;;;;5077455;28;20036;-60
2022/11/06 09:23:49;;;;;;;7.30;6.03;;;;;;;;;;5077297;28;20101;-59
2022/11/06 09:39:25;;;;;;;8.27;7.25;;;;;;;;;;4968706;28;20034;-59
2022/11/06 09:45:55;;;;;;;9.02;6.50;;;;;;;;;;5077294;28;20033;-60
2022/11/06 09:48:52;;;;;;;9.73;6.22;;;;;;;;;;5077466;28;20519;-58
2022/11/06 09:51:27;;;;;;;6.72;5.88;;;;;;;;;;5077477;28;20033;-59
2022/11/06 09:54:14;;;;;;;10.60;6.45;;;;;;;;;;5082932;28;20055;-58
2022/11/06 10:00:05;;;;;;;8.98;5.95;;;;;;;;;;5086223;28;20366;-59
2022/11/06 10:02:35;;;;;;;8.57;6.38;;;;;;;;;;5097081;28;20377;-56
2022/11/06 10:05:42;;;;;;;9.35;7.13;;;;;;;;;;5096959;28;20032;-58
2022/11/06 10:08:47;;;;;;;9.20;6.40;;;;;;;;;;5076450;28;20032;-57
2022/11/06 10:11:49;;;;;;;;;;;;;;;;;;;;;
2022/11/06 10:15:09;;;;;;;7.57;5.63;;;;;;;;;;5058380;28;20486;-56
2022/11/06 10:20:50;;;;;;;9.23;6.60;;;;;;;;;;5033517;28;20522;-57
2022/11/06 10:29:22;;;;;;;9.23;6.43;;;;;;;;;;5096046;28;20437;-59
2022/11/06 10:32:13;;;;;;;5.97;4.28;;;;;;;;;;5084510;28;20040;-58
2022/11/06 10:34:52;;;;;;;6.80;4.75;;;;;;;;;;5096350;28;20028;-58
2022/11/06 10:37:37;;;;;;;6.43;5.13;;;;;;;;;;5093260;28;20032;-58
2022/11/06 10:40:39;;;;;;;;;;;;;;;;;;;;;
2022/11/06 10:46:20;;;;;;;6.82;5.07;;;;;;;;;;5094258;28;20473;-57
2022/11/06 10:52:19;;;;;;;6.38;4.35;;;;;;;;;;5092006;28;20040;-58
2022/11/06 10:54:59;;;;;;;5.75;3.95;;;;;;;;;;5095790;28;20073;-57
2022/11/06 10:58:03;;;;;;;6.40;4.55;;;;;;;;;;5076939;28;20482;-58
2022/11/06 11:01:01;;;;;;;7.20;4.72;;;;;;;;;;5072111;28;20512;-56
2022/11/06 11:03:56;;;;;;;7.63;5.30;;;;;;;;;;5095208;28;20016;-56
2022/11/06 11:06:45;;;;;;;;;;;;;;;;;;;;;
2022/11/06 11:09:32;;;;;;;6.22;5.28;;;;;;;;;;5047433;28;20044;-55
2022/11/06 11:12:22;;;;;;;6.35;5.03;;;;;;;;;;5095321;28;20466;-58
2022/11/06 11:18:30;;;;;;;;;;;;;;;;;;;;;
2022/11/06 11:21:26;;;;;;;6.88;5.20;;;;;;;;;;5010545;28;20036;-57
2022/11/06 11:27:12;;;;;;;9.10;5.82;;;;;;;;;;5064543;28;20043;-58
2022/11/06 11:29:51;;;;;;;6.63;5.60;;;;;;;;;;5095013;28;20044;-57
2022/11/06 11:32:42;;;;;;;9.20;5.53;;;;;;;;;;5094158;28;20093;-58
2022/11/06 11:35:56;;;;;;;7.30;4.78;;;;;;;;;;5068247;28;20043;-58
2022/11/06 11:38:34;;;;;;;6.25;5.03;;;;;;;;;;5076440;28;20123;-58
2022/11/06 11:41:37;;;;;;;7.13;4.85;;;;;;;;;;5086795;28;20089;-58
2022/11/06 11:44:24;;;;;;;9.63;5.60;;;;;;;;;;5095097;28;20429;-57
2022/11/06 11:57:02;;;;;;;9.88;8.88;;;;;;;;;;4934725;29;20434;-58
2022/11/06 12:02:41;;;;;;;7.70;6.55;;;;;;;;;;4935468;29;20037;-59
2022/11/06 12:05:34;;;;;;;5.78;4.95;;;;;;;;;;4935185;29;20385;-58
2022/11/06 12:08:13;;;;;;;9.07;4.40;;;;;;;;;;4984965;28;20523;-57
2022/11/06 12:11:04;;;;;;;;;;;;;;;;;;;;;
2022/11/06 12:16:39;;;;;;;7.13;5.60;;;;;;;;;;5032261;28;20418;-59
2022/11/06 12:19:38;;;;;;;;;;;;;;;;;;;;;
2022/11/06 12:22:44;;;;;;;5.72;4.38;;;;;;;;;;5028909;28;20108;-58
2022/11/06 12:25:53;;;;;;;6.60;3.88;;;;;;;;;;4973090;28;20145;-58
2022/11/06 12:28:45;;;;;;;6.88;5.22;;;;;;;;;;4908571;29;20521;-58
2022/11/06 12:31:53;;;;;;;;;;;;;;;;;;;;;
2022/11/06 12:41:30;;;;;;;;;;;;;;;;;;;;;
2022/11/06 12:47:14;;;;;;;4.63;3.30;;;;;;;;;;4953137;29;20496;-58
2022/11/06 12:50:11;;;;;;;;;;;;;;;;;;;;;
2022/11/06 12:52:56;;;;;;;5.25;4.13;;;;;;;;;;4953177;29;20039;-58
2022/11/06 12:55:43;;;;;;;4.80;2.85;;;;;;;;;;4956179;28;20138;-58
2022/11/06 12:58:31;;;;;;;4.43;3.22;;;;;;;;;;5016631;28;20415;-59
2022/11/06 13:04:25;;;;;;;4.93;3.13;;;;;;;;;;5073473;28;20030;-58
2022/11/06 13:07:12;;;;;;;4.43;2.90;;;;;;;;;;5055143;28;20051;-58
2022/11/06 13:10:08;;;;;;;3.65;3.22;;;;;;;;;;5076023;28;20031;-57
2022/11/06 13:12:59;;;;;;;4.43;3.45;;;;;;;;;;5075003;28;20367;-58
2022/11/06 13:15:42;;;;;;;5.63;3.80;;;;;;;;;;5054605;28;20040;-58
2022/11/06 13:21:39;;;;;;;7.95;4.57;;;;;;;;;;5034923;28;20036;-58
2022/11/06 13:24:24;;;;;;;8.98;3.83;;;;;;;;;;5035339;28;20247;-58
2022/11/06 13:26:59;;;;;;;4.78;3.97;;;;;;;;;;5034597;28;20026;-58
2022/11/06 13:29:35;;;;;;;5.53;3.22;;;;;;;;;;5046412;28;20033;-58
2022/11/06 13:32:39;;;;;;;5.47;4.10;;;;;;;;;;5077997;28;20039;-58
2022/11/06 13:35:33;;;;;;;5.90;4.43;;;;;;;;;;5058746;28;20123;-58
2022/11/06 13:38:18;;;;;;;7.93;4.30;;;;;;;;;;5077378;28;20027;-58
2022/11/06 13:41:19;;;;;;;4.25;3.03;;;;;;;;;;5077773;28;20057;-58
2022/11/06 13:44:14;;;;;;;7.72;3.25;;;;;;;;;;5035412;28;20029;-59
2022/11/06 13:46:59;;;;;;;7.03;3.83;;;;;;;;;;5074417;28;20029;-58
2022/11/06 13:49:45;;;;;;;5.80;3.80;;;;;;;;;;5074742;28;20107;-58
2022/11/06 13:52:49;;;;;;;6.57;4.57;;;;;;;;;;5074607;28;20056;-58
2022/11/06 13:55:34;;;;;;;6.68;4.72;;;;;;;;;;5024682;28;20494;-58
2022/11/06 13:58:37;;;;;;;6.78;3.90;;;;;;;;;;5074063;28;20044;-58
2022/11/06 14:01:18;;;;;;;4.70;4.05;;;;;;;;;;5074317;28;20033;-58
2022/11/06 14:10:16;;;;;;;4.85;3.47;;;;;;;;;;5063699;28;20381;-58
2022/11/06 14:12:53;;;;;;;5.93;4.45;;;;;;;;;;5068074;28;20051;-58
2022/11/06 14:15:48;;;;;;;18.60;10.10;;;;;;;;;;5090861;28;20082;-58
2022/11/06 14:19:15;;;;;;;45.35;24.92;;;;;;;;;;5081035;28;20454;-58
2022/11/06 14:22:03;;;;;;;13.77;9.63;;;;;;;;;;5084416;28;20028;-57
2022/11/06 14:25:04;;;;;;;6.13;4.80;;;;;;;;;;4995366;28;20041;-58
2022/11/06 14:30:31;;;;;;;;;;;;;;;;;;4985770;28;20044;-58
2022/11/06 14:33:11;;;;;;;6.15;4.68;;;;;;;;;;4995510;28;20260;-60
2022/11/06 14:35:59;;;;;;;5.07;4.28;;;;;;;;;;5013253;28;20122;-58
2022/11/06 14:39:02;;;;;;;4.32;3.75;;;;;;;;;;5096381;28;20016;-58
2022/11/06 14:41:45;;;;;;;4.28;3.88;;;;;;;;;;5026567;28;20478;-58
2022/11/06 14:44:30;;;;;;;4.05;3.33;;;;;;;;;;5077293;28;20466;-58
2022/11/06 14:47:19;;;;;;;3.95;3.10;;;;;;;;;;5101730;28;20035;-58
2022/11/06 14:56:17;;;;;;;4.45;3.05;;;;;;;;;;5073609;28;20062;-58
2022/11/06 14:58:51;;;;;;;11.98;3.00;;;;;;;;;;5057585;28;20421;-58
2022/11/06 15:01:55;;;;;;;;;;;;;;;;;;;;;
2022/11/06 15:04:49;;;;;;;3.53;2.88;;;;;;;;;;5071540;28;20037;-58
2022/11/06 15:10:57;;;;;;;11.57;6.40;;;;;;;;;;5055418;28;20112;-58
2022/11/06 15:13:45;;;;;;;4.63;2.92;;;;;;;;;;5074771;28;20040;-58
2022/11/06 15:19:39;;;;;;;4.75;3.80;;;;;;;;;;5031943;28;20041;-58
2022/11/06 15:22:35;;;;;;;4.38;2.72;;;;;;;;;;5072708;28;20338;-59
2022/11/06 15:25:32;;;;;;;;;;;;;;;;;;;;;
2022/11/06 15:31:22;;;;;;;;;;;;;;;;;;;;;
2022/11/06 15:43:15;;;;;;;5.30;3.83;;;;;;;;;;5032038;28;20033;-59
2022/11/06 15:46:20;;;;;;;4.13;3.08;;;;;;;;;;5074167;28;20374;-59
2022/11/06 15:52:13;;;;;;;4.60;3.53;;;;;;;;;;5032183;28;20041;-58
2022/11/06 15:55:08;;;;;;;5.97;3.72;;;;;;;;;;5073931;28;20517;-57
2022/11/06 15:57:55;;;;;;;;;;;;;;;;;;;;;
2022/11/06 16:00:47;;;;;;;7.20;3.80;;;;;;;;;;5071888;28;20037;-58
2022/11/06 16:07:04;;;;;;;5.88;3.65;;;;;;;;;;5056667;28;20033;-58
2022/11/06 16:09:52;;;;;;;6.15;3.42;;;;;;;;;;5062556;28;20036;-58
2022/11/06 16:12:55;;;;;;;3.92;3.03;;;;;;;;;;5070084;28;20055;-59
2022/11/06 16:15:40;;;;;;;5.45;3.80;;;;;;;;;;5040260;28;20063;-57
2022/11/06 16:18:29;;;;;;;5.28;3.58;;;;;;;;;;5074850;28;20025;-58
2022/11/06 16:21:42;;;;;;;5.00;3.63;;;;;;;;;;5068993;28;20041;-58
2022/11/06 16:24:20;;;;;;;5.05;3.78;;;;;;;;;;5029764;28;20044;-56
2022/11/06 16:27:07;;;;;;;5.50;4.10;;;;;;;;;;5073860;28;20032;-58
2022/11/06 16:30:02;;;;;;;10.38;4.95;;;;;;;;;;5059037;28;20071;-57
2022/11/06 16:32:40;;;;;;;6.60;4.95;;;;;;;;;;5056016;28;20514;-58
2022/11/06 16:35:32;;;;;;;5.90;4.25;;;;;;;;;;5074177;28;20074;-58
2022/11/06 16:38:42;;;;;;;7.20;4.85;;;;;;;;;;5074172;28;20500;-57
2022/11/06 16:41:08;;;;;;;9.60;4.72;;;;;;;;;;4972070;28;20046;-58
2022/11/06 16:47:27;;;;;;;;;;;;;;;;;;;;;
2022/11/06 16:50:05;;;;;;;6.05;4.88;;;;;;;;;;5078790;28;20411;-59
2022/11/06 16:53:00;;;;;;;12.82;7.75;;;;;;;;;;5048868;28;20086;-59
2022/11/06 16:56:13;;;;;;;13.70;8.07;;;;;;;;;;5083556;28;20033;-58
2022/11/06 16:58:56;;;;;;;;;;;;;;;;;;;;;
2022/11/06 17:01:54;;;;;;;9.45;6.75;;;;;;;;;;5095715;28;19915;-58
2022/11/06 17:04:30;;;;;;;15.15;8.73;;;;;;;;;;5035149;28;20468;-57
2022/11/06 17:07:18;;;;;;;12.60;7.95;;;;;;;;;;5035616;28;20110;-59
2022/11/06 17:09:57;;;;;;;8.40;5.70;;;;;;;;;;5009089;28;20479;-58
2022/11/06 17:12:59;;;;;;;;;;;;;;;;;;;;;
2022/11/06 17:15:40;;;;;;;9.13;6.07;;;;;;;;;;5031428;28;20033;-59
2022/11/06 17:18:15;;;;;;;6.28;4.95;;;;;;;;;;5018578;28;20421;-59
2022/11/06 17:24:29;;;;;;;6.57;5.50;;;;;;;;;;5012027;28;20025;-60
2022/11/06 17:27:06;;;;;;;5.50;4.72;;;;;;;;;;5032517;28;20102;-59
2022/11/06 17:29:37;;;;;;;5.93;5.20;;;;;;;;;;5035168;28;20037;-58
2022/11/06 17:35:45;;;;;;;7.07;4.57;;;;;;;;;;4985886;28;19906;-59
2022/11/06 17:38:17;;;;;;;5.55;4.63;;;;;;;;;;5013775;28;20096;-59
2022/11/06 17:43:56;;;;;;;7.05;4.70;;;;;;;;;;5014489;28;20431;-59
2022/11/06 17:46:41;;;;;;;7.10;4.82;;;;;;;;;;5014590;28;20435;-58
2022/11/06 17:49:30;;;;;;;13.35;9.02;;;;;;;;;;5027745;28;20077;-57
2022/11/06 17:52:40;;;;;;;8.18;5.75;;;;;;;;;;5096857;28;20479;-58
2022/11/06 17:55:30;;;;;;;10.07;6.03;;;;;;;;;;5096762;28;20028;-59
2022/11/06 17:58:23;;;;;;;6.70;5.50;;;;;;;;;;5096311;28;20121;-57
2022/11/06 18:04:20;;;;;;;9.73;6.35;;;;;;;;;;5093486;28;20161;-57
2022/11/06 18:07:13;;;;;;;15.95;8.80;;;;;;;;;;5096894;28;20034;-59
2022/11/06 18:09:50;;;;;;;8.68;5.32;;;;;;;;;;5096639;28;20359;-58
2022/11/06 18:13:04;;;;;;;6.53;4.95;;;;;;;;;;5080326;28;20040;-59
2022/11/06 18:15:58;;;;;;;6.22;4.70;;;;;;;;;;5096548;28;20534;-58
2022/11/06 18:18:50;;;;;;;6.95;5.18;;;;;;;;;;5096668;28;20063;-59
2022/11/06 18:27:50;;;;;;;;;;;;;;;;;;;;;
2022/11/06 18:33:40;;;;;;;4.45;3.38;;;;;;;;;;5064990;28;20113;-55
2022/11/06 18:36:28;;;;;;;6.30;3.40;;;;;;;;;;5078417;28;20038;-58
2022/11/06 18:42:33;;;;;;;4.50;3.53;;;;;;;;;;5096861;28;20110;-58
2022/11/06 18:45:26;;;;;;;7.47;3.72;;;;;;;;;;5042508;28;20036;-56
2022/11/06 18:54:17;;;;;;;5.03;3.60;;;;;;;;;;5013377;28;20041;-58
2022/11/06 19:00:01;;;;;;;5.13;2.85;;;;;;;;;;5010417;28;20041;-57
2022/11/06 19:02:30;;;;;;;4.85;2.38;;;;;;;;;;5009926;28;20045;-57
2022/11/06 19:05:26;;;;;;;4.72;3.13;;;;;;;;;;5043115;28;20032;-57
2022/11/06 19:08:33;;;;;;;3.60;2.80;;;;;;;;;;5060902;28;20051;-58
2022/11/06 19:11:21;;;;;;;4.93;2.60;;;;;;;;;;5098232;28;20461;-57
2022/11/06 19:14:08;;;;;;;3.70;2.67;;;;;;;;;;5095480;28;20020;-56
2022/11/06 19:17:07;;;;;;;2.83;1.77;;;;;;;;;;5095476;28;20020;-57
2022/11/06 19:19:58;;;;;;;5.00;2.05;;;;;;;;;;5095534;28;20099;-57
2022/11/06 19:22:44;;;;;;;4.35;2.83;;;;;;;;;;5094381;28;20024;-57
2022/11/06 19:25:28;;;;;;;2.47;1.75;;;;;;;;;;5094475;28;20032;-57
2022/11/06 19:28:12;;;;;;;4.70;2.03;;;;;;;;;;5094479;28;20054;-55
2022/11/06 19:30:53;;;;;;;3.08;2.08;;;;;;;;;;5095475;28;20020;-59
2022/11/06 19:39:52;;;;;;;;;;;;;;;;;;;;;
2022/11/06 19:45:49;;;;;;;4.30;1.85;;;;;;;;;;5092407;28;20474;-59
2022/11/06 19:48:46;;;;;;;4.22;2.30;;;;;;;;;;5095146;28;20082;-60
2022/11/06 19:51:25;;;;;;;4.05;2.60;;;;;;;;;;5095557;28;20029;-60
2022/11/06 19:57:33;;;;;;;2.70;1.65;;;;;;;;;;5083976;28;20481;-60
2022/11/06 20:00:39;;;;;;;3.95;2.50;;;;;;;;;;5054172;28;20040;-60
2022/11/06 20:03:39;;;;;;;2.85;2.20;;;;;;;;;;5073300;28;20035;-59
2022/11/06 20:09:48;;;;;;;3.25;1.80;;;;;;;;;;4955832;28;20035;-60
2022/11/06 20:15:46;;;;;;;2.53;1.80;;;;;;;;;;5071119;28;20037;-59
2022/11/06 20:18:30;;;;;;;2.40;1.52;;;;;;;;;;5057514;28;20059;-59
2022/11/06 20:21:32;;;;;;;;;;;;;;;;;;;;;
2022/11/06 20:24:16;;;;;;;2.10;1.30;;;;;;;;;;5038411;28;20033;-59
2022/11/06 20:27:22;;;;;;;2.70;1.65;;;;;;;;;;5012406;28;20490;-60
2022/11/06 20:33:39;;;;;;;4.10;2.22;;;;;;;;;;4956294;28;20043;-59
2022/11/06 20:36:42;;;;;;;;;;;;;;;;;;;;;
2022/11/06 20:39:18;;;;;;;;;;;;;;;;;;;;;
2022/11/06 20:42:03;;;;;;;;;;;;;;;;;;;;;
2022/11/06 20:45:01;;;;;;;2.63;1.52;;;;;;;;;;4948471;29;20042;-59
2022/11/06 20:51:00;;;;;;;2.17;1.23;;;;;;;;;;4920625;29;20035;-59
2022/11/06 20:54:04;;;;;;;;;;;;;;;;;;;;;
2022/11/06 20:56:58;;;;;;;2.40;1.55;;;;;;;;;;5005174;28;20041;-59
2022/11/06 21:00:05;;;;;;;;;;;;;;;;;;;;;
2022/11/06 21:06:19;;;;;;;4.40;1.73;;;;;;;;;;5074448;28;20174;-59
2022/11/06 21:12:01;;;;;;;2.33;1.40;;;;;;;;;;5074077;28;20036;-59
2022/11/06 21:15:01;;;;;;;;;;;;;;;;;;;;;
2022/11/06 21:18:06;;;;;;;1.65;1.10;;;;;;;;;;5070779;28;20108;-59
2022/11/06 21:20:47;;;;;;;2.35;1.13;;;;;;;;;;5066278;28;20059;-59
2022/11/06 21:23:51;;;;;;;1.90;1.00;;;;;;;;;;5057058;28;20024;-59
2022/11/06 21:29:30;;;;;;;2.00;1.20;;;;;;;;;;5073795;28;20035;-59
2022/11/06 21:35:18;;;;;;;1.90;1.02;;;;;;;;;;5059963;28;20051;-59
2022/11/06 21:41:03;;;;;;;1.52;1.08;;;;;;;;;;5076521;28;20125;-59
2022/11/06 21:46:38;;;;;;;;;;;;;;;;;;;;;
2022/11/06 21:49:30;;;;;;;2.05;1.00;;;;;;;;;;5076715;28;20374;-59
2022/11/06 21:58:21;;;;;;;2.13;1.13;;;;;;;;;;5078191;28;20055;-60
2022/11/06 22:01:12;;;;;;;1.85;0.93;;;;;;;;;;5080448;28;20029;-59
2022/11/06 22:03:40;;;;;;;1.83;1.13;;;;;;;;;;5073114;28;20036;-59
2022/11/06 22:06:23;;;;;;;3.25;1.38;;;;;;;;;;5072638;28;20040;-59
2022/11/06 22:08:56;;;;;;;5.20;0.75;;;;;;;;;;5068066;28;20029;-59
2022/11/06 22:11:41;;;;;;;2.85;1.48;;;;;;;;;;5072534;28;20052;-59
2022/11/06 22:14:39;;;;;;;1.50;0.60;;;;;;;;;;5090583;28;20084;-59
2022/11/06 22:17:39;;;;;;;1.63;1.10;;;;;;;;;;5090002;28;20032;-59
2022/11/06 22:20:24;;;;;;;2.58;1.25;;;;;;;;;;5090222;28;20050;-60
2022/11/06 22:28:56;;;;;;;1.98;0.80;;;;;;;;;;5079036;28;20425;-60
2022/11/06 22:38:32;;;;;;;2.03;0.88;;;;;;;;;;4936049;28;20065;-60
2022/11/06 22:41:33;;;;;;;1.63;0.93;;;;;;;;;;4988840;28;20042;-60
2022/11/06 22:47:05;;;;;;;;;;;;;;;;;;;;;
2022/11/06 22:49:44;;;;;;;2.28;1.40;;;;;;;;;;5081286;28;20057;-59
2022/11/06 22:56:13;;;;;;;;;;;;;;;;;;;;;
2022/11/06 22:59:16;;;;;;;1.92;0.98;;;;;;;;;;4996604;28;20084;-60
2022/11/06 23:04:50;;;;;;;2.15;1.10;;;;;;;;;;4999468;28;20038;-60
2022/11/06 23:08:28;;;;;;;2.15;1.00;;;;;;;;;;4992199;28;20057;-60
2022/11/06 23:10:49;;;;;;;1.08;0.52;;;;;;;;;;4994620;28;20037;-60
2022/11/06 23:13:57;;;;;;;2.55;1.60;;;;;;;;;;5072666;28;20072;-59
2022/11/06 23:25:23;;;;;;;1.30;0.70;;;;;;;;;;5089046;28;20061;-60
2022/11/06 23:37:48;;;;;;;1.30;0.80;;;;;;;;;;5038418;28;20067;-58
2022/11/06 23:40:45;;;;;;;2.17;0.88;;;;;;;;;;5047504;28;20029;-58
2022/11/06 23:43:30;;;;;;;1.73;0.98;;;;;;;;;;5046183;28;20044;-58
2022/11/06 23:46:10;;;;;;;1.27;0.65;;;;;;;;;;5047110;28;20033;-58
2022/11/06 23:49:18;;;;;;;3.38;0.70;;;;;;;;;;5055410;28;20078;-58
2022/11/06 23:54:51;;;;;;;1.00;0.50;;;;;;;;;;5046754;28;20088;-58
2022/11/06 23:57:38;;;;;;;1.60;0.77;;;;;;;;;;5079178;28;20084;-58
